sensor_id;sensor_type;location;lat;lon;timestamp;pressure;altitude;pressure_sealevel;temperature;humidity
30516;BME280;17297;54.022;10.760;2023-05-20T00:02:07;102851.25;;;13.90;63.70
30516;BME280;17297;54.022;10.760;2023-05-20T00:04:32;102837.88;;;13.88;63.93
30516;BME280;17297;54.022;10.760;2023-05-20T00:06:58;102846.19;;;13.86;63.99
30516;BME280;17297;54.022;10.760;2023-05-20T00:09:23;102846.34;;;13.85;64.14
30516;BME280;17297;54.022;10.760;2023-05-20T00:11:48;102842.94;;;13.83;64.33
30516;BME280;17297;54.022;10.760;2023-05-20T00:14:14;102843.94;;;13.82;64.47
30516;BME280;17297;54.022;10.760;2023-05-20T00:16:40;102854.94;;;13.80;64.65
30516;BME280;17297;54.022;10.760;2023-05-20T00:19:06;102850.53;;;13.79;64.51
30516;BME280;17297;54.022;10.760;2023-05-20T00:21:31;102854.25;;;13.78;64.56
30516;BME280;17297;54.022;10.760;2023-05-20T00:23:58;102849.88;;;13.77;64.56
30516;BME280;17297;54.022;10.760;2023-05-20T00:26:23;102854.41;;;13.77;64.58
30516;BME280;17297;54.022;10.760;2023-05-20T00:28:53;102853.75;;;13.75;64.48
30516;BME280;17297;54.022;10.760;2023-05-20T00:31:18;102852.06;;;13.74;64.48
30516;BME280;17297;54.022;10.760;2023-05-20T00:33:43;102839.38;;;13.74;64.62
30516;BME280;17297;54.022;10.760;2023-05-20T00:36:09;102844.59;;;13.76;64.52
30516;BME280;17297;54.022;10.760;2023-05-20T00:38:34;102838.03;;;13.78;64.56
30516;BME280;17297;54.022;10.760;2023-05-20T00:40:59;102840.03;;;13.76;64.37
30516;BME280;17297;54.022;10.760;2023-05-20T00:43:25;102847.16;;;13.77;64.49
30516;BME280;17297;54.022;10.760;2023-05-20T00:45:51;102843.59;;;13.77;64.63
30516;BME280;17297;54.022;10.760;2023-05-20T00:48:17;102835.47;;;13.77;64.68
30516;BME280;17297;54.022;10.760;2023-05-20T00:50:43;102841.91;;;13.76;64.75
30516;BME280;17297;54.022;10.760;2023-05-20T00:53:08;102829.41;;;13.75;64.85
30516;BME280;17297;54.022;10.760;2023-05-20T00:55:34;102830.41;;;13.74;64.77
30516;BME280;17297;54.022;10.760;2023-05-20T00:58:00;102835.81;;;13.74;64.84
30516;BME280;17297;54.022;10.760;2023-05-20T01:00:25;102835.13;;;13.72;64.70
30516;BME280;17297;54.022;10.760;2023-05-20T01:02:51;102829.03;;;13.70;64.58
30516;BME280;17297;54.022;10.760;2023-05-20T01:05:16;102836.81;;;13.73;64.52
30516;BME280;17297;54.022;10.760;2023-05-20T01:07:42;102835.28;;;13.70;64.33
30516;BME280;17297;54.022;10.760;2023-05-20T01:10:07;102831.91;;;13.68;64.28
30516;BME280;17297;54.022;10.760;2023-05-20T01:12:45;102829.53;;;13.65;64.46
30516;BME280;17297;54.022;10.760;2023-05-20T01:15:14;102824.97;;;13.66;64.39
30516;BME280;17297;54.022;10.760;2023-05-20T01:17:43;102826.13;;;13.63;64.49
30516;BME280;17297;54.022;10.760;2023-05-20T01:20:12;102822.59;;;13.62;64.37
30516;BME280;17297;54.022;10.760;2023-05-20T01:22:51;102822.72;;;13.61;64.48
30516;BME280;17297;54.022;10.760;2023-05-20T01:25:18;102830.00;;;13.60;64.44
30516;BME280;17297;54.022;10.760;2023-05-20T01:27:45;102833.72;;;13.59;64.35
30516;BME280;17297;54.022;10.760;2023-05-20T01:30:11;102828.31;;;13.59;64.40
30516;BME280;17297;54.022;10.760;2023-05-20T01:32:38;102829.16;;;13.60;64.69
30516;BME280;17297;54.022;10.760;2023-05-20T01:35:06;102831.72;;;13.61;64.60
30516;BME280;17297;54.022;10.760;2023-05-20T01:37:35;102837.97;;;13.62;64.48
30516;BME280;17297;54.022;10.760;2023-05-20T01:40:03;102831.53;;;13.63;64.45
30516;BME280;17297;54.022;10.760;2023-05-20T01:42:29;102830.53;;;13.64;64.48
30516;BME280;17297;54.022;10.760;2023-05-20T01:44:55;102825.97;;;13.65;64.42
30516;BME280;17297;54.022;10.760;2023-05-20T01:47:20;102824.13;;;13.65;64.40
30516;BME280;17297;54.022;10.760;2023-05-20T01:49:46;102827.81;;;13.64;64.41
30516;BME280;17297;54.022;10.760;2023-05-20T01:52:12;102824.44;;;13.62;64.33
30516;BME280;17297;54.022;10.760;2023-05-20T01:54:37;102823.59;;;13.61;64.69
30516;BME280;17297;54.022;10.760;2023-05-20T01:57:03;102820.34;;;13.58;64.88
30516;BME280;17297;54.022;10.760;2023-05-20T01:59:28;102813.59;;;13.54;65.03
30516;BME280;17297;54.022;10.760;2023-05-20T02:01:54;102826.78;;;13.57;64.87
30516;BME280;17297;54.022;10.760;2023-05-20T02:04:19;102834.88;;;13.57;65.11
30516;BME280;17297;54.022;10.760;2023-05-20T02:06:46;102828.47;;;13.58;65.28
30516;BME280;17297;54.022;10.760;2023-05-20T02:09:12;102820.03;;;13.61;65.13
30516;BME280;17297;54.022;10.760;2023-05-20T02:11:37;102815.50;;;13.61;65.49
30516;BME280;17297;54.022;10.760;2023-05-20T02:14:03;102820.19;;;13.59;65.43
30516;BME280;17297;54.022;10.760;2023-05-20T02:16:29;102828.31;;;13.59;65.53
30516;BME280;17297;54.022;10.760;2023-05-20T02:18:54;102828.31;;;13.59;65.69
30516;BME280;17297;54.022;10.760;2023-05-20T02:21:22;102821.75;;;13.62;65.64
30516;BME280;17297;54.022;10.760;2023-05-20T02:23:48;102816.84;;;13.66;65.74
30516;BME280;17297;54.022;10.760;2023-05-20T02:26:13;102808.22;;;13.62;65.80
30516;BME280;17297;54.022;10.760;2023-05-20T02:28:38;102818.03;;;13.63;65.88
30516;BME280;17297;54.022;10.760;2023-05-20T02:31:07;102804.81;;;13.60;65.68
30516;BME280;17297;54.022;10.760;2023-05-20T02:33:33;102815.97;;;13.57;66.25
30516;BME280;17297;54.022;10.760;2023-05-20T02:35:59;102808.03;;;13.55;66.29
30516;BME280;17297;54.022;10.760;2023-05-20T02:38:24;102807.84;;;13.57;66.32
30516;BME280;17297;54.022;10.760;2023-05-20T02:40:50;102808.19;;;13.54;66.35
30516;BME280;17297;54.022;10.760;2023-05-20T02:43:15;102814.28;;;13.56;66.87
30516;BME280;17297;54.022;10.760;2023-05-20T02:45:41;102806.31;;;13.54;66.78
30516;BME280;17297;54.022;10.760;2023-05-20T02:48:06;102807.34;;;13.53;66.82
30516;BME280;17297;54.022;10.760;2023-05-20T02:50:32;102810.19;;;13.52;67.05
30516;BME280;17297;54.022;10.760;2023-05-20T02:52:57;102807.84;;;13.57;67.07
30516;BME280;17297;54.022;10.760;2023-05-20T02:55:23;102803.59;;;13.54;67.28
30516;BME280;17297;54.022;10.760;2023-05-20T02:57:48;102809.72;;;13.56;67.27
30516;BME280;17297;54.022;10.760;2023-05-20T03:00:14;102814.28;;;13.56;67.31
30516;BME280;17297;54.022;10.760;2023-05-20T03:02:40;102814.44;;;13.54;67.45
30516;BME280;17297;54.022;10.760;2023-05-20T03:05:06;102810.72;;;13.55;67.67
30516;BME280;17297;54.022;10.760;2023-05-20T03:07:33;102814.59;;;13.53;67.68
30516;BME280;17297;54.022;10.760;2023-05-20T03:10:01;102806.16;;;13.56;67.69
30516;BME280;17297;54.022;10.760;2023-05-20T03:12:27;102812.94;;;13.60;67.98
30516;BME280;17297;54.022;10.760;2023-05-20T03:14:52;102823.44;;;13.63;67.85
30516;BME280;17297;54.022;10.760;2023-05-20T03:17:22;102804.81;;;13.60;67.77
30516;BME280;17297;54.022;10.760;2023-05-20T03:19:48;102816.66;;;13.59;67.92
30516;BME280;17297;54.022;10.760;2023-05-20T03:22:13;102812.41;;;13.56;67.82
30516;BME280;17297;54.022;10.760;2023-05-20T03:24:38;102801.41;;;13.58;67.81
30516;BME280;17297;54.022;10.760;2023-05-20T03:27:05;102824.78;;;13.59;68.08
30516;BME280;17297;54.022;10.760;2023-05-20T03:29:33;102818.84;;;13.55;68.26
30516;BME280;17297;54.022;10.760;2023-05-20T03:31:58;102809.19;;;13.53;68.23
30516;BME280;17297;54.022;10.760;2023-05-20T03:34:24;102802.44;;;13.57;68.14
30516;BME280;17297;54.022;10.760;2023-05-20T03:36:52;102807.00;;;13.56;68.46
30516;BME280;17297;54.022;10.760;2023-05-20T03:39:17;102814.63;;;13.61;68.42
30516;BME280;17297;54.022;10.760;2023-05-20T03:41:43;102803.13;;;13.59;68.57
30516;BME280;17297;54.022;10.760;2023-05-20T03:44:09;102797.88;;;13.57;68.81
30516;BME280;17297;54.022;10.760;2023-05-20T03:46:34;102801.78;;;13.63;68.66
30516;BME280;17297;54.022;10.760;2023-05-20T03:49:01;102804.69;;;13.61;69.08
30516;BME280;17297;54.022;10.760;2023-05-20T03:51:26;102808.22;;;13.62;68.78
30516;BME280;17297;54.022;10.760;2023-05-20T03:53:55;102809.91;;;13.63;68.84
30516;BME280;17297;54.022;10.760;2023-05-20T03:56:20;102803.16;;;13.67;68.98
30516;BME280;17297;54.022;10.760;2023-05-20T03:58:46;102811.97;;;13.69;69.06
30516;BME280;17297;54.022;10.760;2023-05-20T04:01:12;102793.53;;;13.65;69.32
30516;BME280;17297;54.022;10.760;2023-05-20T04:03:39;102808.88;;;13.64;69.51
30516;BME280;17297;54.022;10.760;2023-05-20T04:06:06;102797.22;;;13.63;69.74
30516;BME280;17297;54.022;10.760;2023-05-20T04:08:32;102808.88;;;13.64;69.78
30516;BME280;17297;54.022;10.760;2023-05-20T04:11:04;102806.88;;;13.66;69.56
30516;BME280;17297;54.022;10.760;2023-05-20T04:13:30;102803.84;;;13.69;69.87
30516;BME280;17297;54.022;10.760;2023-05-20T04:15:55;102804.34;;;13.73;70.12
30516;BME280;17297;54.022;10.760;2023-05-20T04:18:21;102807.56;;;13.68;70.38
30516;BME280;17297;54.022;10.760;2023-05-20T04:20:46;102802.50;;;13.73;70.48
30516;BME280;17297;54.022;10.760;2023-05-20T04:23:13;102796.75;;;13.76;70.49
30516;BME280;17297;54.022;10.760;2023-05-20T04:25:38;102796.59;;;13.78;70.58
30516;BME280;17297;54.022;10.760;2023-05-20T04:28:05;102800.16;;;13.78;70.73
30516;BME280;17297;54.022;10.760;2023-05-20T04:30:30;102797.13;;;13.81;70.78
30516;BME280;17297;54.022;10.760;2023-05-20T04:32:58;102794.25;;;13.83;70.67
30516;BME280;17297;54.022;10.760;2023-05-20T04:35:23;102789.84;;;13.82;71.03
30516;BME280;17297;54.022;10.760;2023-05-20T04:37:51;102794.25;;;13.83;70.94
30516;BME280;17297;54.022;10.760;2023-05-20T04:40:18;102797.31;;;13.88;71.04
30516;BME280;17297;54.022;10.760;2023-05-20T04:42:43;102799.53;;;13.93;71.11
30516;BME280;17297;54.022;10.760;2023-05-20T04:45:10;102798.50;;;13.94;71.30
30516;BME280;17297;54.022;10.760;2023-05-20T04:47:37;102801.91;;;13.96;71.06
30516;BME280;17297;54.022;10.760;2023-05-20T04:50:07;102798.88;;;13.99;71.31
30516;BME280;17297;54.022;10.760;2023-05-20T04:52:36;102793.94;;;13.94;71.36
30516;BME280;17297;54.022;10.760;2023-05-20T04:55:05;102798.00;;;13.98;71.33
30516;BME280;17297;54.022;10.760;2023-05-20T04:57:33;102789.56;;;14.01;71.51
30516;BME280;17297;54.022;10.760;2023-05-20T04:59:59;102797.19;;;14.14;71.51
30516;BME280;17297;54.022;10.760;2023-05-20T05:02:25;102792.97;;;14.28;71.58
30516;BME280;17297;54.022;10.760;2023-05-20T05:04:52;102786.88;;;14.42;71.52
30516;BME280;17297;54.022;10.760;2023-05-20T05:07:18;102796.72;;;14.51;71.29
30516;BME280;17297;54.022;10.760;2023-05-20T05:09:43;102794.22;;;14.58;71.11
30516;BME280;17297;54.022;10.760;2023-05-20T05:12:08;102797.41;;;14.70;71.00
30516;BME280;17297;54.022;10.760;2023-05-20T05:14:34;102801.97;;;14.86;70.76
30516;BME280;17297;54.022;10.760;2023-05-20T05:16:59;102805.00;;;14.91;70.60
30516;BME280;17297;54.022;10.760;2023-05-20T05:19:24;102798.91;;;14.97;70.37
30516;BME280;17297;54.022;10.760;2023-05-20T05:21:50;102784.84;;;15.01;70.21
30516;BME280;17297;54.022;10.760;2023-05-20T05:24:16;102795.16;;;15.06;69.96
30516;BME280;17297;54.022;10.760;2023-05-20T05:26:41;102797.88;;;14.98;69.83
30516;BME280;17297;54.022;10.760;2023-05-20T05:29:07;102802.97;;;14.93;69.83
30516;BME280;17297;54.022;10.760;2023-05-20T05:31:33;102794.00;;;14.84;69.72
30516;BME280;17297;54.022;10.760;2023-05-20T05:33:58;102802.50;;;14.81;69.92
30516;BME280;17297;54.022;10.760;2023-05-20T05:36:23;102793.50;;;14.72;70.26
30516;BME280;17297;54.022;10.760;2023-05-20T05:38:50;102800.13;;;14.70;70.11
30516;BME280;17297;54.022;10.760;2023-05-20T05:41:16;102798.97;;;14.64;70.28
30516;BME280;17297;54.022;10.760;2023-05-20T05:43:41;102795.22;;;14.65;70.50
30516;BME280;17297;54.022;10.760;2023-05-20T05:46:07;102796.75;;;14.60;70.70
30516;BME280;17297;54.022;10.760;2023-05-20T05:48:35;102800.63;;;14.57;70.89
30516;BME280;17297;54.022;10.760;2023-05-20T05:51:00;102798.44;;;14.52;70.71
30516;BME280;17297;54.022;10.760;2023-05-20T05:53:26;102805.00;;;14.50;71.06
30516;BME280;17297;54.022;10.760;2023-05-20T05:55:51;102800.28;;;14.44;71.17
30516;BME280;17297;54.022;10.760;2023-05-20T05:58:17;102818.03;;;14.46;71.39
30516;BME280;17297;54.022;10.760;2023-05-20T06:00:42;102801.78;;;14.46;71.41
30516;BME280;17297;54.022;10.760;2023-05-20T06:03:08;102806.72;;;14.43;71.47
30516;BME280;17297;54.022;10.760;2023-05-20T06:05:35;102807.56;;;14.43;71.62
30516;BME280;17297;54.022;10.760;2023-05-20T06:08:01;102808.53;;;14.42;71.88
30516;BME280;17297;54.022;10.760;2023-05-20T06:10:27;102809.06;;;14.38;71.80
30516;BME280;17297;54.022;10.760;2023-05-20T06:12:53;102798.91;;;14.40;72.12
30516;BME280;17297;54.022;10.760;2023-05-20T06:15:18;102797.72;;;14.42;72.01
30516;BME280;17297;54.022;10.760;2023-05-20T06:17:45;102807.03;;;14.40;72.05
30516;BME280;17297;54.022;10.760;2023-05-20T06:20:12;102800.78;;;14.39;72.27
30516;BME280;17297;54.022;10.760;2023-05-20T06:22:38;102799.56;;;14.42;72.26
30516;BME280;17297;54.022;10.760;2023-05-20T06:25:03;102816.00;;;14.48;72.48
30516;BME280;17297;54.022;10.760;2023-05-20T06:27:32;102808.75;;;14.49;72.52
30516;BME280;17297;54.022;10.760;2023-05-20T06:29:57;102805.34;;;14.47;72.40
30516;BME280;17297;54.022;10.760;2023-05-20T06:32:23;102796.53;;;14.45;72.48
30516;BME280;17297;54.022;10.760;2023-05-20T06:34:50;102809.75;;;14.48;72.57
30516;BME280;17297;54.022;10.760;2023-05-20T06:37:16;102801.16;;;14.52;72.32
30516;BME280;17297;54.022;10.760;2023-05-20T06:39:41;102795.41;;;14.55;72.07
30516;BME280;17297;54.022;10.760;2023-05-20T06:42:06;102801.97;;;14.69;71.85
30516;BME280;17297;54.022;10.760;2023-05-20T06:44:34;102807.22;;;14.87;71.11
30516;BME280;17297;54.022;10.760;2023-05-20T06:47:16;102799.41;;;15.00;70.64
30516;BME280;17297;54.022;10.760;2023-05-20T06:49:43;102800.88;;;15.19;70.26
30516;BME280;17297;54.022;10.760;2023-05-20T06:52:09;102796.75;;;15.40;69.66
30516;BME280;17297;54.022;10.760;2023-05-20T06:54:34;102795.63;;;15.65;69.33
30516;BME280;17297;54.022;10.760;2023-05-20T06:57:05;102797.28;;;15.83;68.51
30516;BME280;17297;54.022;10.760;2023-05-20T06:59:31;102800.59;;;15.93;67.68
30516;BME280;17297;54.022;10.760;2023-05-20T07:01:57;102797.66;;;16.03;67.32
30516;BME280;17297;54.022;10.760;2023-05-20T07:04:23;102794.03;;;16.10;67.09
30516;BME280;17297;54.022;10.760;2023-05-20T07:06:48;102786.44;;;16.06;66.91
30516;BME280;17297;54.022;10.760;2023-05-20T07:09:13;102794.97;;;15.94;66.80
30516;BME280;17297;54.022;10.760;2023-05-20T07:11:39;102791.66;;;15.84;66.77
30516;BME280;17297;54.022;10.760;2023-05-20T07:14:04;102794.59;;;15.75;66.82
30516;BME280;17297;54.022;10.760;2023-05-20T07:16:30;102788.00;;;15.69;66.93
30516;BME280;17297;54.022;10.760;2023-05-20T07:18:59;102787.16;;;15.60;66.95
30516;BME280;17297;54.022;10.760;2023-05-20T07:21:24;102783.97;;;15.57;67.28
30516;BME280;17297;54.022;10.760;2023-05-20T07:24:13;102799.59;;;15.55;67.19
30516;BME280;17297;54.022;10.760;2023-05-20T07:26:38;102787.69;;;15.56;67.17
30516;BME280;17297;54.022;10.760;2023-05-20T07:29:05;102793.13;;;15.56;67.22
30516;BME280;17297;54.022;10.760;2023-05-20T07:31:31;102783.78;;;15.58;67.09
30516;BME280;17297;54.022;10.760;2023-05-20T07:33:57;102780.72;;;15.61;67.17
30516;BME280;17297;54.022;10.760;2023-05-20T07:36:25;102788.19;;;15.67;67.17
30516;BME280;17297;54.022;10.760;2023-05-20T07:38:52;102779.34;;;15.65;67.14
30516;BME280;17297;54.022;10.760;2023-05-20T07:41:17;102784.44;;;15.60;67.23
30516;BME280;17297;54.022;10.760;2023-05-20T07:43:43;102778.03;;;15.61;67.20
30516;BME280;17297;54.022;10.760;2023-05-20T07:46:08;102778.03;;;15.61;67.09
30516;BME280;17297;54.022;10.760;2023-05-20T07:48:34;102786.50;;;15.58;67.15
30516;BME280;17297;54.022;10.760;2023-05-20T07:51:00;102777.00;;;15.62;67.27
30516;BME280;17297;54.022;10.760;2023-05-20T07:53:26;102785.59;;;15.66;67.52
30516;BME280;17297;54.022;10.760;2023-05-20T07:55:52;102788.69;;;15.71;67.34
30516;BME280;17297;54.022;10.760;2023-05-20T07:58:19;102787.84;;;15.70;67.24
30516;BME280;17297;54.022;10.760;2023-05-20T08:00:44;102792.91;;;15.74;67.25
30516;BME280;17297;54.022;10.760;2023-05-20T08:03:10;102791.88;;;15.75;67.26
30516;BME280;17297;54.022;10.760;2023-05-20T08:05:48;102787.13;;;15.77;67.16
30516;BME280;17297;54.022;10.760;2023-05-20T08:08:14;102781.34;;;15.80;67.23
30516;BME280;17297;54.022;10.760;2023-05-20T08:10:54;102781.34;;;15.80;67.19
30516;BME280;17297;54.022;10.760;2023-05-20T08:13:24;102774.69;;;15.82;67.45
30516;BME280;17297;54.022;10.760;2023-05-20T08:15:52;102776.41;;;15.83;67.40
30516;BME280;17297;54.022;10.760;2023-05-20T08:18:17;102773.84;;;15.82;67.46
30516;BME280;17297;54.022;10.760;2023-05-20T08:20:43;102779.59;;;15.87;67.51
30516;BME280;17297;54.022;10.760;2023-05-20T08:23:08;102779.41;;;15.88;67.32
30516;BME280;17297;54.022;10.760;2023-05-20T08:25:34;102775.84;;;15.88;67.27
30516;BME280;17297;54.022;10.760;2023-05-20T08:28:03;102771.47;;;15.87;67.12
30516;BME280;17297;54.022;10.760;2023-05-20T08:30:30;102773.63;;;15.91;67.64
30516;BME280;17297;54.022;10.760;2023-05-20T08:32:55;102772.06;;;15.97;67.44
30516;BME280;17297;54.022;10.760;2023-05-20T08:35:23;102772.75;;;15.99;67.26
30516;BME280;17297;54.022;10.760;2023-05-20T08:37:48;102769.84;;;16.01;67.39
30516;BME280;17297;54.022;10.760;2023-05-20T08:40:14;102770.31;;;16.04;67.42
30516;BME280;17297;54.022;10.760;2023-05-20T08:42:41;102768.16;;;16.00;66.80
30516;BME280;17297;54.022;10.760;2023-05-20T08:45:09;102773.25;;;15.94;66.99
30516;BME280;17297;54.022;10.760;2023-05-20T08:47:38;102780.56;;;15.94;66.82
30516;BME280;17297;54.022;10.760;2023-05-20T08:50:06;102774.16;;;15.87;66.60
30516;BME280;17297;54.022;10.760;2023-05-20T08:52:33;102764.34;;;15.86;66.78
30516;BME280;17297;54.022;10.760;2023-05-20T08:55:01;102767.22;;;15.84;66.45
30516;BME280;17297;54.022;10.760;2023-05-20T08:57:27;102775.91;;;15.80;66.28
30516;BME280;17297;54.022;10.760;2023-05-20T08:59:54;102769.84;;;15.69;66.36
30516;BME280;17297;54.022;10.760;2023-05-20T09:02:19;102768.69;;;15.64;66.66
30516;BME280;17297;54.022;10.760;2023-05-20T09:04:44;102767.81;;;15.63;67.16
30516;BME280;17297;54.022;10.760;2023-05-20T09:07:10;102768.53;;;15.57;67.27
30516;BME280;17297;54.022;10.760;2023-05-20T09:09:35;102769.41;;;15.58;67.36
30516;BME280;17297;54.022;10.760;2023-05-20T09:12:01;102766.16;;;15.54;67.66
30516;BME280;17297;54.022;10.760;2023-05-20T09:14:28;102762.13;;;15.50;67.97
30516;BME280;17297;54.022;10.760;2023-05-20T09:16:54;102764.34;;;15.46;68.12
30516;BME280;17297;54.022;10.760;2023-05-20T09:19:21;102772.81;;;15.52;68.28
30516;BME280;17297;54.022;10.760;2023-05-20T09:21:46;102762.13;;;15.50;68.12
30516;BME280;17297;54.022;10.760;2023-05-20T09:24:12;102749.25;;;15.52;67.86
30516;BME280;17297;54.022;10.760;2023-05-20T09:26:37;102752.13;;;15.51;68.00
30516;BME280;17297;54.022;10.760;2023-05-20T09:29:03;102748.88;;;15.55;68.54
30516;BME280;17297;54.022;10.760;2023-05-20T09:31:32;102733.44;;;15.56;68.01
30516;BME280;17297;54.022;10.760;2023-05-20T09:33:59;102740.06;;;15.53;67.77
30516;BME280;17297;54.022;10.760;2023-05-20T09:36:27;102749.59;;;15.49;67.58
30516;BME280;17297;54.022;10.760;2023-05-20T09:38:53;102745.69;;;15.52;67.78
30516;BME280;17297;54.022;10.760;2023-05-20T09:41:22;102740.25;;;15.52;67.89
30516;BME280;17297;54.022;10.760;2023-05-20T09:43:49;102726.16;;;15.56;67.94
30516;BME280;17297;54.022;10.760;2023-05-20T09:46:15;102725.47;;;15.54;67.77
30516;BME280;17297;54.022;10.760;2023-05-20T09:48:41;102719.75;;;15.49;67.98
30516;BME280;17297;54.022;10.760;2023-05-20T09:51:07;102738.41;;;15.52;67.73
30516;BME280;17297;54.022;10.760;2023-05-20T09:53:34;102739.09;;;15.46;67.81
30516;BME280;17297;54.022;10.760;2023-05-20T09:56:00;102724.06;;;15.35;68.07
30516;BME280;17297;54.022;10.760;2023-05-20T09:58:25;102732.38;;;15.34;68.23
30516;BME280;17297;54.022;10.760;2023-05-20T10:00:51;102731.84;;;15.38;68.68
30516;BME280;17297;54.022;10.760;2023-05-20T10:03:20;102733.41;;;15.33;68.36
30516;BME280;17297;54.022;10.760;2023-05-20T10:09:15;102733.09;;;15.28;68.67
30516;BME280;17297;54.022;10.760;2023-05-20T10:11:57;102727.31;;;15.31;68.92
30516;BME280;17297;54.022;10.760;2023-05-20T10:19:56;102726.94;;;15.34;68.56
30516;BME280;17297;54.022;10.760;2023-05-20T10:22:27;102715.63;;;15.30;69.04
30516;BME280;17297;54.022;10.760;2023-05-20T10:24:59;102718.13;;;15.32;68.85
30516;BME280;17297;54.022;10.760;2023-05-20T10:27:25;102722.72;;;15.31;68.88
30516;BME280;17297;54.022;10.760;2023-05-20T10:29:59;102709.66;;;15.35;68.97
30516;BME280;17297;54.022;10.760;2023-05-20T10:32:25;102720.34;;;15.36;69.00
30516;BME280;17297;54.022;10.760;2023-05-20T10:34:51;102718.81;;;15.34;68.58
30516;BME280;17297;54.022;10.760;2023-05-20T10:37:22;102705.94;;;15.36;69.10
30516;BME280;17297;54.022;10.760;2023-05-20T10:39:49;102703.59;;;15.33;68.54
30516;BME280;17297;54.022;10.760;2023-05-20T10:42:14;102695.81;;;15.21;69.09
30516;BME280;17297;54.022;10.760;2023-05-20T10:44:49;102696.88;;;15.12;69.25
30516;BME280;17297;54.022;10.760;2023-05-20T10:47:14;102693.19;;;15.05;69.49
30516;BME280;17297;54.022;10.760;2023-05-20T10:49:43;102695.91;;;15.05;69.72
30516;BME280;17297;54.022;10.760;2023-05-20T10:52:10;102700.31;;;14.98;69.71
30516;BME280;17297;54.022;10.760;2023-05-20T10:54:42;102690.84;;;15.02;70.11
30516;BME280;17297;54.022;10.760;2023-05-20T10:57:08;102697.94;;;14.95;69.97
30516;BME280;17297;54.022;10.760;2023-05-20T10:59:35;102678.81;;;14.96;70.27
30516;BME280;17297;54.022;10.760;2023-05-20T11:02:01;102698.31;;;14.92;70.17
30516;BME280;17297;54.022;10.760;2023-05-20T11:04:28;102690.34;;;14.90;70.04
30516;BME280;17297;54.022;10.760;2023-05-20T11:06:53;102684.94;;;14.90;70.18
30516;BME280;17297;54.022;10.760;2023-05-20T11:09:22;102682.38;;;14.89;69.97
30516;BME280;17297;54.022;10.760;2023-05-20T11:11:49;102682.59;;;14.87;70.41
30516;BME280;17297;54.022;10.760;2023-05-20T11:14:15;102686.81;;;14.82;70.30
30516;BME280;17297;54.022;10.760;2023-05-20T11:16:42;102679.19;;;14.85;70.18
30516;BME280;17297;54.022;10.760;2023-05-20T11:19:13;102666.31;;;14.87;70.33
30516;BME280;17297;54.022;10.760;2023-05-20T11:21:42;102664.09;;;14.91;70.33
30516;BME280;17297;54.022;10.760;2023-05-20T11:24:08;102663.75;;;14.94;70.03
30516;BME280;17297;54.022;10.760;2023-05-20T11:26:34;102662.09;;;14.85;70.05
30516;BME280;17297;54.022;10.760;2023-05-20T11:28:59;102656.16;;;14.89;70.36
30516;BME280;17297;54.022;10.760;2023-05-20T11:31:25;102659.38;;;14.93;70.41
30516;BME280;17297;54.022;10.760;2023-05-20T11:33:51;102657.81;;;14.98;70.78
30516;BME280;17297;54.022;10.760;2023-05-20T11:36:16;102669.16;;;15.02;70.65
30516;BME280;17297;54.022;10.760;2023-05-20T11:38:44;102666.59;;;15.00;70.25
30516;BME280;17297;54.022;10.760;2023-05-20T11:41:10;102662.22;;;14.99;70.19
30516;BME280;17297;54.022;10.760;2023-05-20T11:43:35;102660.69;;;14.97;70.35
30516;BME280;17297;54.022;10.760;2023-05-20T11:46:01;102652.56;;;14.97;70.53
30516;BME280;17297;54.022;10.760;2023-05-20T11:48:26;102651.03;;;15.02;70.36
30516;BME280;17297;54.022;10.760;2023-05-20T11:50:53;102658.31;;;15.02;70.33
30516;BME280;17297;54.022;10.760;2023-05-20T11:53:20;102649.84;;;15.05;70.49
30516;BME280;17297;54.022;10.760;2023-05-20T11:55:48;102661.66;;;15.04;70.66
30516;BME280;17297;54.022;10.760;2023-05-20T11:58:21;102652.75;;;14.95;70.13
30516;BME280;17297;54.022;10.760;2023-05-20T12:00:47;102659.88;;;14.88;70.26
30516;BME280;17297;54.022;10.760;2023-05-20T12:03:13;102647.72;;;14.84;70.68
30516;BME280;17297;54.022;10.760;2023-05-20T12:05:39;102649.94;;;14.81;70.88
30516;BME280;17297;54.022;10.760;2023-05-20T12:08:05;102661.94;;;14.78;70.96
30516;BME280;17297;54.022;10.760;2023-05-20T12:10:31;102650.63;;;14.74;70.96
30516;BME280;17297;54.022;10.760;2023-05-20T12:12:57;102641.47;;;14.75;71.00
30516;BME280;17297;54.022;10.760;2023-05-20T12:15:22;102642.97;;;14.78;71.13
30516;BME280;17297;54.022;10.760;2023-05-20T12:17:50;102651.13;;;14.78;71.00
30516;BME280;17297;54.022;10.760;2023-05-20T12:20:16;102650.75;;;14.81;71.26
30516;BME280;17297;54.022;10.760;2023-05-20T12:22:43;102649.25;;;14.78;71.33
30516;BME280;17297;54.022;10.760;2023-05-20T12:25:11;102642.16;;;14.77;70.82
30516;BME280;17297;54.022;10.760;2023-05-20T12:27:36;102642.78;;;14.79;71.05
30516;BME280;17297;54.022;10.760;2023-05-20T12:30:02;102636.53;;;14.79;70.92
30516;BME280;17297;54.022;10.760;2023-05-20T12:32:27;102642.78;;;14.79;70.91
30516;BME280;17297;54.022;10.760;2023-05-20T12:34:52;102653.28;;;14.83;71.18
30516;BME280;17297;54.022;10.760;2023-05-20T12:37:18;102647.50;;;14.86;70.93
30516;BME280;17297;54.022;10.760;2023-05-20T12:39:43;102631.94;;;14.88;70.76
30516;BME280;17297;54.022;10.760;2023-05-20T12:42:08;102629.06;;;14.89;70.89
30516;BME280;17297;54.022;10.760;2023-05-20T12:44:34;102628.72;;;14.92;70.77
30516;BME280;17297;54.022;10.760;2023-05-20T12:46:59;102626.00;;;14.92;70.77